Alya — FGSK — position and weather

sailwx.info

Track history (hours):
 
Tides and Currents Weather Stations Pressure Air Temp Water Temp Dewpoint Dewpoint Depression Visibility Wind Speed Wind Dir Waves Ship Positions

Alya

Last reported at 2018-Apr-19 07:38 UTC. Time now 2018-Apr-24 16:38 UTC.
Position N 48°06' W 004°20'.

Length 24 m.

Type: Other ship. MMSI: 227392000.

Date/timePositionNaut miles runAvg speedWind from/ knotsBaromVisibWave heightAir tempDewpointWater temp
2018-Apr-19 07:38N 48°06' W 004°20'0 0.0
2018-Apr-19 07:29N 48°06' W 004°20'0 0.0
2018-Apr-19 06:59N 48°06' W 004°20'0 0.0
2018-Apr-19 06:28N 48°06' W 004°20'0 0.0
2018-Apr-19 06:00N 48°06' W 004°20'0 0.0
2018-Apr-19 05:30N 48°06' W 004°20'0 0.0
2018-Apr-19 05:00N 48°06' W 004°20'  
2018-Apr-15 02:03N 48°06' W 004°19'1 8.5
2018-Apr-15 01:57N 48°07' W 004°20'3 5.9
2018-Apr-15 01:31N 48°08' W 004°23'1 1.2
2018-Apr-15 01:00N 48°08' W 004°24'1 1.2
2018-Apr-15 00:30N 48°08' W 004°25'1 2.2
2018-Apr-15 00:00N 48°08' W 004°27'3 5.4
2018-Apr-14 23:30N 48°08' W 004°31'4 7.5
2018-Apr-14 23:00N 48°08' W 004°36'4 7.5
2018-Apr-14 22:30N 48°10' W 004°41'4 7.2
2018-Apr-14 22:00N 48°11' W 004°46'4 7.1
2018-Apr-14 21:30N 48°13' W 004°51'4 7.3
2018-Apr-14 20:59N 48°15' W 004°56'8 8.4
2018-Apr-14 19:58N 48°20' W 005°06'  
Track history (hours):
 
Tides and Currents Weather Stations Pressure Air Temp Water Temp Dewpoint Dewpoint Depression Visibility Wind Speed Wind Dir Waves Ship Positions

Alya

Last reported at 2018-Apr-19 07:38 UTC. Time now 2018-Apr-24 16:38 UTC.
Position N 48°06' W 004°20'.

Length 24 m.

Type: Other ship. MMSI: 227392000.

Date/timePositionNaut miles runAvg speedWind from/ knotsBaromVisibWave heightAir tempDewpointWater temp
2018-Apr-19 07:38N 48°06' W 004°20'0 0.0
2018-Apr-19 07:29N 48°06' W 004°20'0 0.0
2018-Apr-19 06:59N 48°06' W 004°20'0 0.0
2018-Apr-19 06:28N 48°06' W 004°20'0 0.0
2018-Apr-19 06:00N 48°06' W 004°20'0 0.0
2018-Apr-19 05:30N 48°06' W 004°20'0 0.0
2018-Apr-19 05:00N 48°06' W 004°20'  
2018-Apr-15 02:03N 48°06' W 004°19'1 8.5
2018-Apr-15 01:57N 48°07' W 004°20'3 5.9
2018-Apr-15 01:31N 48°08' W 004°23'1 1.2
2018-Apr-15 01:00N 48°08' W 004°24'1 1.2
2018-Apr-15 00:30N 48°08' W 004°25'1 2.2
2018-Apr-15 00:00N 48°08' W 004°27'3 5.4
2018-Apr-14 23:30N 48°08' W 004°31'4 7.5
2018-Apr-14 23:00N 48°08' W 004°36'4 7.5
2018-Apr-14 22:30N 48°10' W 004°41'4 7.2
2018-Apr-14 22:00N 48°11' W 004°46'4 7.1
2018-Apr-14 21:30N 48°13' W 004°51'4 7.3
2018-Apr-14 20:59N 48°15' W 004°56'8 8.4
2018-Apr-14 19:58N 48°20' W 005°06'  

Dump ship's entire track history